Time;durP1;ratioP1;P1;durP2;ratioP2;P2;SDS_P1;SDS_P2;PMS_P1;PMS_P2;Temp;Humidity;BMP_temperature;BMP_pressure;BME280_temperature;BME280_humidity;BME280_pressure;Samples;Min_cycle;Max_cycle;Signal;HPM_P1;HPM_P2
2022/05/23 00:00:59;;;;;;;11.25;4.63;;;;;;;19.60;71.38;95016.06;4982135;28;20057;-62
2022/05/23 00:03:26;;;;;;;5.47;4.22;;;;;;;19.57;71.88;95016.50;4982839;28;20401;-62
2022/05/23 00:05:52;;;;;;;8.90;4.43;;;;;;;19.57;72.06;95013.81;4980447;28;20432;-62
2022/05/23 00:08:17;;;;;;;9.35;4.90;;;;;;;19.62;71.41;95024.66;4983306;28;20126;-62
2022/05/23 00:10:43;;;;;;;8.23;4.78;;;;;;;19.58;71.77;95021.59;4983124;28;20438;-62
2022/05/23 00:13:08;;;;;;;9.20;4.43;;;;;;;19.46;72.12;95024.13;4967514;28;20034;-62
2022/05/23 00:15:34;;;;;;;11.60;4.45;;;;;;;19.32;71.61;95030.56;4988817;28;20030;-63
2022/05/23 00:17:59;;;;;;;8.18;4.75;;;;;;;19.23;71.46;95023.84;4985592;28;20104;-62
2022/05/23 00:20:26;;;;;;;6.82;4.25;;;;;;;19.09;71.96;95029.22;4981699;28;20031;-63
2022/05/23 00:22:51;;;;;;;10.52;4.47;;;;;;;19.03;72.02;95038.09;4985215;28;20018;-63
2022/05/23 00:25:17;;;;;;;13.45;4.80;;;;;;;18.98;72.03;95038.72;4981114;28;20026;-62
2022/05/23 00:27:43;;;;;;;7.18;4.30;;;;;;;18.94;72.43;95037.47;4981525;28;20081;-63
2022/05/23 00:30:13;;;;;;;7.43;4.43;;;;;;;19.01;71.95;95029.47;4982725;28;20033;-62
2022/05/23 00:35:23;;;;;;;6.40;4.43;;;;;;;19.10;71.21;95033.53;4984349;28;20058;-62
2022/05/23 00:37:53;;;;;;;8.25;4.40;;;;;;;19.08;71.32;95035.59;4983994;28;20026;-63
2022/05/23 00:40:28;;;;;;;7.72;4.45;;;;;;;19.01;72.13;95041.00;4981056;28;20034;-63
2022/05/23 00:43:14;;;;;;;6.97;4.10;;;;;;;18.99;73.35;95040.34;4987296;28;20030;-62
2022/05/23 00:45:43;;;;;;;14.35;5.15;;;;;;;18.95;73.02;95041.78;4980252;28;20041;-63
2022/05/23 00:48:09;;;;;;;5.50;4.05;;;;;;;19.00;72.39;95049.19;4984177;28;20110;-63
2022/05/23 00:50:35;;;;;;;9.35;4.30;;;;;;;18.97;73.20;95044.25;4986028;28;20110;-62
2022/05/23 00:53:02;;;;;;;7.88;4.32;;;;;;;18.90;72.85;95037.09;4981694;28;20022;-63
2022/05/23 00:55:35;;;;;;;5.40;4.35;;;;;;;18.84;72.83;95034.44;4984676;28;20093;-62
2022/05/23 00:58:08;;;;;;;7.40;4.60;;;;;;;18.80;70.90;95038.56;4983378;28;20030;-62
2022/05/23 01:00:35;;;;;;;7.80;4.70;;;;;;;18.77;70.64;95042.47;4983063;28;20018;-62
2022/05/23 01:03:05;;;;;;;6.75;4.30;;;;;;;18.79;70.67;95036.91;4978772;28;20509;-62
2022/05/23 01:05:32;;;;;;;6.28;4.07;;;;;;;18.84;69.63;95040.56;4981206;28;20050;-62
2022/05/23 01:07:58;;;;;;;8.80;4.57;;;;;;;18.88;69.33;95035.66;4982366;28;20024;-63
2022/05/23 01:10:24;;;;;;;8.65;4.35;;;;;;;18.92;69.59;95036.06;4982665;28;20534;-62
2022/05/23 01:12:49;;;;;;;7.63;4.22;;;;;;;18.92;69.78;95028.06;4984791;28;20038;-62
2022/05/23 01:15:21;;;;;;;11.68;5.47;;;;;;;18.89;69.65;95027.44;4986869;28;20396;-62
2022/05/23 01:17:47;;;;;;;6.18;4.20;;;;;;;18.88;69.07;95025.78;4986536;28;20014;-62
2022/05/23 01:20:12;;;;;;;7.55;4.15;;;;;;;18.87;68.69;95029.50;4980298;28;20027;-62
2022/05/23 01:22:59;;;;;;;11.38;4.78;;;;;;;18.85;68.35;95030.75;4986393;28;20560;-62
2022/05/23 01:25:42;;;;;;;8.73;4.40;;;;;;;18.85;68.77;95023.56;4979615;28;20386;-62
2022/05/23 01:28:07;;;;;;;4.93;3.78;;;;;;;18.84;68.53;95016.59;4980487;28;20038;-62
2022/05/23 01:30:35;;;;;;;5.97;3.78;;;;;;;18.84;68.93;95019.25;4987606;28;20019;-62
2022/05/23 01:33:04;;;;;;;13.02;4.78;;;;;;;18.90;68.92;95012.25;4979413;28;20567;-62
2022/05/23 01:35:29;;;;;;;7.20;4.45;;;;;;;18.91;68.10;95013.91;4985288;28;20413;-63
2022/05/23 01:37:56;;;;;;;5.35;4.18;;;;;;;18.93;69.19;95013.69;4990294;28;20081;-62
2022/05/23 01:40:21;;;;;;;11.95;4.53;;;;;;;18.93;68.64;95019.03;4979600;28;20491;-62
2022/05/23 01:42:47;;;;;;;5.55;4.18;;;;;;;18.88;68.67;95012.47;4975568;28;20050;-62
2022/05/23 01:45:16;;;;;;;10.70;4.60;;;;;;;18.93;68.97;95013.69;4983940;28;20033;-62
2022/05/23 01:47:42;;;;;;;10.38;4.63;;;;;;;18.92;69.26;95020.06;4985256;28;20474;-62
2022/05/23 01:50:08;;;;;;;7.93;4.18;;;;;;;18.97;69.45;95018.38;4991308;28;20105;-62
2022/05/23 01:52:34;;;;;;;7.60;4.55;;;;;;;19.03;69.39;95019.41;4981661;28;20027;-62
2022/05/23 01:54:59;;;;;;;7.50;4.68;;;;;;;19.08;69.64;95005.47;4982942;28;20077;-62
2022/05/23 01:57:25;;;;;;;11.40;4.75;;;;;;;19.15;68.91;94993.72;4989214;28;20035;-62
2022/05/23 02:02:34;;;;;;;14.65;4.72;;;;;;;19.20;72.70;94969.06;4980774;28;20562;-62
2022/05/23 02:05:00;;;;;;;12.25;4.70;;;;;;;18.94;74.00;94967.34;4981733;28;20022;-62
2022/05/23 02:07:25;;;;;;;11.70;4.65;;;;;;;18.69;74.84;94979.50;4991061;28;20061;-63
2022/05/23 02:09:50;;;;;;;9.57;4.70;;;;;;;18.50;75.68;94975.06;4981889;28;20525;-62
2022/05/23 02:12:17;;;;;;;9.02;5.53;;;;;;;18.36;75.08;94955.63;4979526;28;20105;-62
2022/05/23 02:14:43;;;;;;;9.80;4.55;;;;;;;18.26;76.72;94948.91;4982658;28;20113;-62
2022/05/23 02:17:11;;;;;;;10.07;5.55;;;;;;;18.21;78.32;94956.66;4985429;28;20049;-62
2022/05/23 02:19:36;;;;;;;10.73;4.90;;;;;;;18.26;76.71;94958.72;4984158;28;20023;-62
2022/05/23 02:22:03;;;;;;;12.50;4.47;;;;;;;18.37;76.13;94954.59;4983056;28;20446;-62
2022/05/23 02:24:28;;;;;;;12.07;4.88;;;;;;;18.38;76.90;94953.56;4981766;28;20538;-62
2022/05/23 02:26:53;;;;;;;11.80;5.35;;;;;;;18.33;77.54;94959.50;4985767;28;20118;-62
2022/05/23 02:29:19;;;;;;;10.75;4.72;;;;;;;18.30;79.30;94943.94;4981471;28;20149;-62
2022/05/23 02:31:48;;;;;;;9.20;4.68;;;;;;;18.30;79.41;94949.28;4987381;28;20057;-62
2022/05/23 02:34:14;;;;;;;11.27;4.90;;;;;;;18.29;79.75;94942.31;4983696;28;20035;-62
2022/05/23 02:36:40;;;;;;;11.27;4.53;;;;;;;18.31;79.23;94946.41;4982253;28;20158;-62
2022/05/23 02:39:05;;;;;;;10.63;4.72;;;;;;;18.29;79.90;94948.47;4985919;28;20134;-62
2022/05/23 02:41:31;;;;;;;7.78;4.70;;;;;;;18.28;79.96;94936.19;4981144;28;20034;-62
2022/05/23 02:43:56;;;;;;;7.20;4.75;;;;;;;18.30;79.65;94936.78;4984268;28;20026;-62
2022/05/23 02:46:23;;;;;;;9.60;4.63;;;;;;;18.35;79.81;94943.34;4979272;28;20018;-62
2022/05/23 02:48:48;;;;;;;11.50;5.10;;;;;;;18.40;79.65;94943.50;4983658;28;20022;-61
2022/05/23 02:51:13;;;;;;;8.00;4.50;;;;;;;18.43;80.73;94943.09;4987931;28;20516;-62
2022/05/23 02:53:39;;;;;;;11.10;5.07;;;;;;;18.42;81.49;94942.28;4976255;28;20107;-62
2022/05/23 02:56:04;;;;;;;6.70;4.82;;;;;;;18.42;80.90;94942.28;4987902;28;20482;-62
2022/05/23 02:58:29;;;;;;;8.77;5.32;;;;;;;18.42;81.50;94942.28;4985975;28;20105;-62
2022/05/23 03:00:55;;;;;;;10.02;5.45;;;;;;;18.40;82.04;94952.34;4976657;28;20041;-62
2022/05/23 03:03:20;;;;;;;9.32;5.60;;;;;;;18.43;82.30;94964.41;4977310;28;20470;-62
2022/05/23 03:05:48;;;;;;;9.18;5.38;;;;;;;18.36;82.65;94969.78;4986721;28;20045;-62
2022/05/23 03:08:17;;;;;;;8.30;5.03;;;;;;;18.32;82.69;94972.03;4988483;28;20049;-62
2022/05/23 03:10:43;;;;;;;6.60;4.65;;;;;;;18.28;83.48;94949.50;4977793;28;20073;-63
2022/05/23 03:13:09;;;;;;;7.95;5.43;;;;;;;18.28;82.87;94941.50;4980560;28;20031;-62
2022/05/23 03:15:35;;;;;;;8.43;5.00;;;;;;;18.25;84.13;94936.59;4988053;28;20026;-62
2022/05/23 03:18:02;;;;;;;11.80;5.70;;;;;;;18.22;85.48;94929.00;4991290;28;20064;-63
2022/05/23 03:20:28;;;;;;;19.42;6.03;;;;;;;18.01;88.68;94922.91;4983943;28;20023;-62
2022/05/23 03:28:22;;;;;;;17.17;6.07;;;;;;;17.53;95.49;94971.00;4993698;28;20037;-60
2022/05/23 03:30:47;;;;;;;13.13;6.70;;;;;;;17.49;95.94;94969.78;4993602;28;20034;-61
2022/05/23 03:33:13;;;;;;;14.43;5.70;;;;;;;17.49;95.37;94969.78;4982625;28;20062;-62
2022/05/23 03:35:40;;;;;;;11.05;5.40;;;;;;;17.45;94.21;94980.00;4991518;28;20026;-62
2022/05/23 03:38:06;;;;;;;14.80;5.47;;;;;;;17.33;94.63;94980.59;4986626;28;20517;-62
2022/05/23 03:40:34;;;;;;;11.80;5.53;;;;;;;17.25;95.38;94986.13;4988381;28;20030;-62
2022/05/23 03:43:00;;;;;;;11.88;5.85;;;;;;;17.23;94.67;94997.97;4989208;28;20082;-62
2022/05/23 03:45:26;;;;;;;17.23;5.82;;;;;;;17.23;96.64;94998.78;4982764;28;20019;-62
2022/05/23 03:47:53;;;;;;;10.57;6.18;;;;;;;17.26;96.26;94995.75;4989524;28;20034;-62
2022/05/23 03:50:20;;;;;;;19.95;6.20;;;;;;;17.22;97.66;94991.00;4965541;28;20435;-61
2022/05/23 03:52:46;;;;;;;12.00;6.18;;;;;;;17.23;96.89;94992.66;4989317;28;20023;-62
2022/05/23 03:55:11;;;;;;;23.10;6.85;;;;;;;17.13;98.83;94983.22;4984994;28;20051;-62
2022/05/23 03:57:37;;;;;;;10.95;7.70;;;;;;;17.11;98.33;94979.91;4988869;28;20037;-61
2022/05/23 04:00:06;;;;;;;9.90;5.55;;;;;;;17.11;98.78;94958.66;4985340;28;20067;-62
2022/05/23 04:02:32;;;;;;;17.25;6.03;;;;;;;17.08;99.44;94951.06;4966310;28;20470;-62
2022/05/23 04:04:57;;;;;;;21.38;6.32;;;;;;;17.12;98.60;94949.66;4990742;28;20034;-62
2022/05/23 04:07:23;;;;;;;11.85;7.07;;;;;;;17.15;99.38;94941.28;4995222;28;20057;-62
2022/05/23 04:09:48;;;;;;;8.75;6.32;;;;;;;17.17;99.98;94935.75;4987106;28;20413;-63
2022/05/23 04:12:14;;;;;;;14.80;6.60;;;;;;;17.21;100.00;94937.00;4983191;28;20034;-62
2022/05/23 04:14:39;;;;;;;11.90;5.95;;;;;;;17.27;99.39;94935.38;4986461;28;20497;-61
2022/05/23 04:17:06;;;;;;;11.15;6.05;;;;;;;17.29;100.00;94934.16;4994858;28;20022;-62
2022/05/23 04:19:31;;;;;;;12.60;6.20;;;;;;;17.32;100.00;94949.69;4987289;28;20128;-62
2022/05/23 04:21:57;;;;;;;9.18;5.28;;;;;;;17.33;100.00;94940.69;4984930;28;20114;-62
2022/05/23 04:24:22;;;;;;;14.10;6.45;;;;;;;17.38;100.00;94948.09;4978379;28;20022;-62
2022/05/23 04:26:54;;;;;;;11.68;6.80;;;;;;;17.38;99.66;94945.41;4991050;28;20096;-62
2022/05/23 04:29:19;;;;;;;13.32;7.00;;;;;;;17.34;100.00;94952.16;4985154;28;20027;-63
2022/05/23 04:31:44;;;;;;;14.05;6.20;;;;;;;17.34;100.00;94954.81;4987765;28;20034;-63
2022/05/23 04:36:54;;;;;;;15.48;6.05;;;;;;;17.40;100.00;94951.34;4983515;28;20520;-62
2022/05/23 04:39:19;;;;;;;15.55;5.38;;;;;;;17.23;100.00;94948.25;4987443;28;20062;-63
2022/05/23 04:41:45;;;;;;;14.32;6.50;;;;;;;17.13;100.00;94935.34;4984250;28;20038;-63
2022/05/23 04:44:10;;;;;;;11.98;5.53;;;;;;;17.07;100.00;94935.34;4984779;28;20478;-63
2022/05/23 04:46:36;;;;;;;11.77;5.82;;;;;;;17.01;100.00;94929.78;4982923;28;20034;-60
2022/05/23 04:51:46;;;;;;;18.67;6.20;;;;;;;16.93;100.00;94921.97;4979863;28;20037;-64
2022/05/23 04:54:11;;;;;;;10.90;5.32;;;;;;;16.95;100.00;94919.13;4985473;28;20047;-63
2022/05/23 04:56:39;;;;;;;11.80;6.18;;;;;;;17.01;100.00;94921.81;4986120;28;20026;-63
2022/05/23 04:59:05;;;;;;;8.32;6.10;;;;;;;17.07;100.00;94922.84;4985302;28;20029;-62
2022/05/23 05:01:31;;;;;;;10.20;5.93;;;;;;;17.15;100.00;94921.84;4990408;28;20026;-62
2022/05/23 05:03:57;;;;;;;10.68;6.13;;;;;;;17.21;100.00;94922.88;4990558;28;20559;-62
2022/05/23 05:06:26;;;;;;;11.15;6.78;;;;;;;17.16;100.00;94923.47;4984622;28;20030;-62
2022/05/23 05:08:52;;;;;;;10.98;5.88;;;;;;;17.18;100.00;94922.28;4988018;28;20031;-63
2022/05/23 05:11:17;;;;;;;13.10;6.50;;;;;;;17.21;100.00;94925.53;4984194;28;20053;-62
2022/05/23 05:13:44;;;;;;;8.73;6.00;;;;;;;17.32;100.00;94933.75;4987370;28;20073;-63
2022/05/23 05:16:11;;;;;;;9.30;6.25;;;;;;;17.40;100.00;94937.22;4977389;28;20026;-62
2022/05/23 05:18:36;;;;;;;14.48;6.30;;;;;;;17.44;100.00;94947.25;4986590;28;20031;-62
2022/05/23 05:21:11;;;;;;;10.80;5.80;;;;;;;17.65;100.00;94949.94;4983876;28;20033;-63
2022/05/23 05:23:37;;;;;;;10.93;6.25;;;;;;;17.72;100.00;94942.78;4988673;28;20027;-62
2022/05/23 05:26:05;;;;;;;9.93;5.68;;;;;;;17.75;100.00;94953.81;4981376;28;20038;-62
2022/05/23 05:28:31;;;;;;;12.27;5.78;;;;;;;17.80;100.00;94960.41;4985769;28;20417;-61
2022/05/23 05:31:21;;;;;;;13.40;6.03;;;;;;;17.87;100.00;94950.56;4983675;28;20030;-63
2022/05/23 05:33:53;;;;;;;12.63;6.22;;;;;;;17.88;100.00;94957.50;4970563;28;20032;-62
2022/05/23 05:36:24;;;;;;;11.55;6.80;;;;;;;17.92;100.00;94958.72;4973352;28;20174;-62
2022/05/23 05:38:54;;;;;;;10.23;6.65;;;;;;;17.83;99.97;94963.44;4982945;28;20034;-62
2022/05/23 05:41:34;;;;;;;17.55;6.75;;;;;;;17.82;100.00;94956.47;4984688;28;20027;-62
2022/05/23 05:44:09;;;;;;;9.93;6.13;;;;;;;17.90;100.00;94953.63;4983934;28;20080;-61
2022/05/23 05:46:39;;;;;;;13.25;6.35;;;;;;;17.97;99.38;94956.25;4985381;28;20104;-62
2022/05/23 05:49:11;;;;;;;9.20;6.00;;;;;;;18.14;97.87;94959.38;4985727;28;20027;-64
2022/05/23 05:51:38;;;;;;;10.23;5.95;;;;;;;18.15;97.66;94955.69;4981342;28;20390;-62
2022/05/23 05:54:06;;;;;;;10.40;5.43;;;;;;;18.27;96.58;94950.53;4968731;28;20116;-62
2022/05/23 05:56:32;;;;;;;10.93;5.65;;;;;;;18.38;96.43;94956.22;4977700;28;20109;-62
2022/05/23 05:58:57;;;;;;;7.32;6.30;;;;;;;18.60;96.10;94948.81;4975680;28;20098;-62
2022/05/23 06:01:23;;;;;;;15.18;5.95;;;;;;;18.79;95.19;94941.75;4973573;28;20479;-62
2022/05/23 06:03:48;;;;;;;10.05;5.53;;;;;;;18.87;95.00;94943.34;4976828;28;20027;-63
2022/05/23 06:11:41;;;;;;;12.80;6.43;;;;;;;19.23;92.94;94935.81;4979785;28;20045;-62
2022/05/23 06:14:07;;;;;;;11.13;6.05;;;;;;;19.38;92.51;94930.16;4982888;28;20026;-63
2022/05/23 06:16:35;;;;;;;10.70;6.05;;;;;;;19.64;90.10;94928.31;4982862;28;20035;-62
2022/05/23 06:19:00;;;;;;;8.68;5.75;;;;;;;19.65;86.15;94938.81;4982057;28;20034;-60
2022/05/23 06:21:28;;;;;;;9.30;5.90;;;;;;;19.87;85.87;94938.41;4983640;28;20026;-61
2022/05/23 06:23:54;;;;;;;12.45;5.75;;;;;;;20.10;83.59;94934.34;4985197;28;20101;-62
2022/05/23 06:26:21;;;;;;;14.02;5.45;;;;;;;20.29;82.20;94921.81;4986014;28;20070;-61
2022/05/23 06:28:47;;;;;;;11.88;5.40;;;;;;;20.39;82.86;94921.28;4986330;28;20097;-62
2022/05/23 06:31:15;;;;;;;11.18;5.07;;;;;;;20.64;79.79;94913.19;4988156;28;20045;-61
2022/05/23 06:33:40;;;;;;;9.25;4.72;;;;;;;21.04;76.46;94909.22;4978854;28;20529;-61
2022/05/23 06:36:07;;;;;;;12.27;5.63;;;;;;;21.42;74.24;94907.22;4984303;28;20035;-61
2022/05/23 06:38:33;;;;;;;8.50;4.20;;;;;;;21.47;73.58;94912.72;4981540;28;20034;-61
2022/05/23 06:40:59;;;;;;;11.95;4.63;;;;;;;21.44;73.44;94911.31;4988038;28;20485;-61
2022/05/23 06:43:24;;;;;;;8.90;4.45;;;;;;;21.84;70.70;94909.06;4985605;28;20026;-61
2022/05/23 06:45:50;;;;;;;11.50;5.28;;;;;;;22.19;68.36;94916.28;4979705;28;20061;-61
2022/05/23 06:48:16;;;;;;;8.65;4.68;;;;;;;22.21;67.95;94903.47;4983048;28;20034;-61
2022/05/23 06:50:43;;;;;;;8.73;4.93;;;;;;;22.25;68.87;94888.56;4982761;28;20027;-61
2022/05/23 06:53:10;;;;;;;16.65;4.53;;;;;;;22.16;67.21;94906.88;4978321;28;20034;-61
2022/05/23 06:55:35;;;;;;;9.15;4.00;;;;;;;22.38;65.31;94918.84;4981516;28;20545;-61
2022/05/23 06:58:00;;;;;;;13.15;4.60;;;;;;;22.28;65.75;94904.16;4984349;28;20058;-61
2022/05/23 07:00:26;;;;;;;16.40;5.30;;;;;;;22.46;65.53;94892.50;4977290;28;20027;-61
2022/05/23 07:02:51;;;;;;;6.63;4.65;;;;;;;22.74;67.07;94876.69;4983619;28;20057;-62
2022/05/23 07:13:33;;;;;;;10.60;5.27;;;;;;;23.00;69.89;94845.78;4978584;28;20057;-62
2022/05/23 07:15:59;;;;;;;10.05;4.70;;;;;;;22.95;70.26;94859.09;4973252;28;20483;-62
2022/05/23 07:18:26;;;;;;;12.02;4.95;;;;;;;23.03;69.81;94848.00;4983755;28;20081;-62
2022/05/23 07:20:52;;;;;;;8.20;4.43;;;;;;;23.60;67.77;94830.13;4979789;28;20035;-62
2022/05/23 07:23:17;;;;;;;14.35;4.90;;;;;;;23.60;67.68;94822.06;4976034;28;20418;-62
2022/05/23 07:25:42;;;;;;;7.57;4.43;;;;;;;24.00;65.80;94806.81;4976887;28;20030;-62
2022/05/23 07:28:08;;;;;;;8.82;4.80;;;;;;;24.25;64.19;94802.00;4981932;28;20038;-62
2022/05/23 07:30:34;;;;;;;12.77;4.60;;;;;;;24.35;63.68;94814.78;4987130;28;20751;-62
2022/05/23 07:32:59;;;;;;;8.35;4.28;;;;;;;24.83;59.24;94817.75;4979919;28;20061;-61
2022/05/23 07:35:25;;;;;;;8.88;3.90;;;;;;;24.73;57.62;94821.13;4975932;28;20022;-61
2022/05/23 07:37:51;;;;;;;13.23;4.40;;;;;;;24.49;57.29;94826.78;4982716;28;20033;-62
2022/05/23 07:40:18;;;;;;;9.80;4.65;;;;;;;24.69;56.16;94841.53;4978398;28;20031;-62
2022/05/23 07:42:44;;;;;;;10.68;4.40;;;;;;;24.54;58.55;94845.66;4979349;28;20057;-61
2022/05/23 07:45:10;;;;;;;8.98;4.45;;;;;;;24.14;58.49;94841.41;4980234;28;20070;-62
2022/05/23 07:47:36;;;;;;;9.35;4.13;;;;;;;23.99;58.99;94855.41;4975991;28;20031;-62
2022/05/23 07:50:04;;;;;;;9.23;4.85;;;;;;;24.13;55.88;94859.41;4985716;28;20092;-63
2022/05/23 07:52:29;;;;;;;14.60;4.60;;;;;;;24.08;53.69;94862.00;4983564;28;20035;-62
2022/05/23 08:00:34;;;;;;;12.57;3.58;;;;;;;22.63;58.21;94866.81;4991475;28;20045;-62
2022/05/23 08:03:05;;;;;;;8.80;4.20;;;;;;;22.32;60.34;94859.75;4982446;28;20045;-63
2022/05/23 08:05:32;;;;;;;10.52;4.30;;;;;;;22.46;60.00;94868.38;4980693;28;20121;-63
2022/05/23 08:07:57;;;;;;;9.07;5.20;;;;;;;22.27;60.85;94877.59;4985885;28;20030;-63
2022/05/23 08:10:24;;;;;;;13.52;4.00;;;;;;;22.45;60.33;94866.72;4981515;28;20031;-63
2022/05/23 08:12:54;;;;;;;12.80;4.53;;;;;;;22.33;61.09;94873.97;4988629;28;20041;-63
2022/05/23 08:15:21;;;;;;;12.48;4.70;;;;;;;22.64;60.04;94873.78;4986954;28;20141;-63
2022/05/23 08:17:47;;;;;;;10.48;5.00;;;;;;;22.51;60.49;94880.25;4984088;28;20041;-63
2022/05/23 08:20:13;;;;;;;15.27;4.72;;;;;;;22.30;60.51;94871.75;4980185;28;20027;-63
2022/05/23 08:22:38;;;;;;;15.88;4.28;;;;;;;22.52;60.75;94863.94;4983947;28;20598;-63
2022/05/23 08:25:04;;;;;;;7.10;4.28;;;;;;;23.36;57.43;94863.59;4964508;28;20570;-63
2022/05/23 08:27:31;;;;;;;8.50;4.65;;;;;;;23.87;56.10;94852.84;4980979;28;20061;-63
2022/05/23 08:29:56;;;;;;;9.50;4.80;;;;;;;24.44;54.59;94846.34;4979364;28;20051;-63
2022/05/23 08:32:22;;;;;;;14.70;5.18;;;;;;;24.82;54.75;94840.34;4985638;28;20475;-63
2022/05/23 08:34:47;;;;;;;8.35;3.97;;;;;;;25.33;52.07;94829.28;4984919;28;20110;-64
2022/05/23 08:37:14;;;;;;;10.75;4.25;;;;;;;25.55;50.49;94823.00;4981447;28;20482;-63
2022/05/23 08:39:39;;;;;;;18.98;4.20;;;;;;;26.02;51.96;94811.44;4987727;28;20029;-63
2022/05/23 08:42:28;;;;;;;13.02;5.50;;;;;;;26.66;48.44;94800.66;4990852;28;20034;-63
2022/05/23 08:45:04;;;;;;;11.23;4.68;;;;;;;27.05;48.46;94777.78;4980855;28;20030;-64
2022/05/23 08:47:38;;;;;;;11.15;4.95;;;;;;;26.80;48.08;94751.56;4984845;28;20421;-64
2022/05/23 08:50:15;;;;;;;14.27;4.78;;;;;;;26.09;50.33;94751.06;4976892;28;20125;-64
2022/05/23 08:52:48;;;;;;;12.52;4.55;;;;;;;26.11;49.38;94754.31;4980891;28;20031;-63
2022/05/23 08:55:26;;;;;;;14.27;4.88;;;;;;;25.05;52.99;94736.91;4976041;28;20054;-63
2022/05/23 08:58:24;;;;;;;11.30;4.75;;;;;;;24.76;55.18;94718.38;4981822;28;20030;-64
2022/05/23 09:01:11;;;;;;;7.85;5.00;;;;;;;24.66;54.57;94724.44;4974852;28;20039;-63
2022/05/23 09:04:07;;;;;;;9.07;4.57;;;;;;;25.00;55.78;94718.03;4987487;28;20044;-63
2022/05/23 09:06:39;;;;;;;11.77;5.07;;;;;;;25.63;54.23;94725.50;4984608;28;20031;-63
2022/05/23 09:09:08;;;;;;;9.95;4.45;;;;;;;25.83;53.44;94729.38;4979718;28;20026;-63
2022/05/23 09:11:37;;;;;;;13.80;5.40;;;;;;;26.08;51.67;94731.38;4985505;28;20560;-64
2022/05/23 09:14:04;;;;;;;12.77;4.97;;;;;;;26.37;51.00;94736.38;4985558;28;20038;-64
2022/05/23 09:16:40;;;;;;;12.80;4.43;;;;;;;26.39;50.60;94730.69;4983869;28;20026;-65
2022/05/23 09:19:35;;;;;;;9.13;4.38;;;;;;;26.23;51.96;94716.34;4979478;28;20026;-65
2022/05/23 09:22:12;;;;;;;11.82;4.68;;;;;;;26.53;50.16;94718.31;4983633;28;20042;-64
2022/05/23 09:24:42;;;;;;;8.43;4.40;;;;;;;26.34;49.87;94718.00;4981249;28;20035;-64
2022/05/23 09:27:19;;;;;;;7.15;4.30;;;;;;;26.13;49.94;94706.31;4986298;28;20449;-63
2022/05/23 09:29:50;;;;;;;8.73;4.20;;;;;;;26.52;49.27;94714.00;4980493;28;20113;-63
2022/05/23 09:32:17;;;;;;;13.45;4.97;;;;;;;26.69;49.00;94721.84;4986992;28;20110;-64
2022/05/23 09:34:51;;;;;;;12.90;4.82;;;;;;;26.71;48.13;94733.19;4981588;28;20074;-64
2022/05/23 09:37:23;;;;;;;7.57;4.40;;;;;;;27.40;48.17;94730.25;4980128;28;20026;-63
2022/05/23 09:39:55;;;;;;;5.50;3.53;;;;;;;27.55;46.92;94734.06;4978911;28;20037;-64
2022/05/23 09:48:09;;;;;;;16.85;4.28;;;;;;;27.26;45.38;94737.28;4986452;28;20040;-64
2022/05/23 09:50:38;;;;;;;10.63;3.78;;;;;;;27.35;46.96;94730.28;4978471;28;20034;-63
2022/05/23 09:53:13;;;;;;;8.18;4.50;;;;;;;26.43;49.98;94737.19;4988998;28;20415;-64
2022/05/23 09:55:40;;;;;;;10.10;4.25;;;;;;;26.02;52.70;94725.16;4979454;28;20086;-64
2022/05/23 09:58:11;;;;;;;13.55;5.32;;;;;;;26.76;51.97;94718.88;4985422;28;20038;-64
2022/05/23 10:00:56;;;;;;;11.07;4.47;;;;;;;27.38;51.87;94708.09;4987842;28;20034;-65
2022/05/23 10:03:23;;;;;;;10.20;4.82;;;;;;;26.78;50.08;94705.94;4980665;28;20508;-64
2022/05/23 10:06:08;;;;;;;11.07;4.32;;;;;;;25.97;51.41;94676.59;4987783;28;20034;-64
2022/05/23 10:08:38;;;;;;;7.78;3.97;;;;;;;25.69;52.83;94643.59;4985618;28;20026;-65
2022/05/23 10:11:26;;;;;;;13.20;4.55;;;;;;;25.46;54.05;94651.00;4985230;28;20030;-63
2022/05/23 10:13:54;;;;;;;7.72;4.70;;;;;;;25.79;53.23;94674.38;4984087;28;20425;-64
2022/05/23 10:16:29;;;;;;;12.18;4.43;;;;;;;26.50;50.57;94683.78;4982784;28;20105;-64
2022/05/23 10:19:00;;;;;;;;;;;;;;;27.13;49.75;94673.81;4979450;28;20025;-64
2022/05/23 10:21:35;;;;;;;15.43;4.70;;;;;;;26.91;49.08;94679.53;4980878;28;19922;-63
2022/05/23 10:24:01;;;;;;;10.73;4.95;;;;;;;27.12;48.87;94675.72;4975127;28;20113;-64
2022/05/23 10:26:29;;;;;;;9.07;4.90;;;;;;;27.15;49.61;94672.47;4985680;28;20109;-64
2022/05/23 10:29:05;;;;;;;14.48;5.40;;;;;;;27.42;48.65;94671.34;4982878;28;20035;-66
2022/05/23 10:31:52;;;;;;;10.93;5.07;;;;;;;27.64;47.97;94664.03;4978315;28;20042;-63
2022/05/23 10:34:41;;;;;;;8.40;5.18;;;;;;;27.89;46.50;94649.59;4983734;28;20452;-63
2022/05/23 10:37:18;;;;;;;7.35;4.53;;;;;;;28.48;44.81;94655.25;4979915;28;20142;-64
2022/05/23 10:42:46;;;;;;;7.18;4.35;;;;;;;28.90;42.34;94644.13;4986093;28;20125;-64
2022/05/23 10:45:21;;;;;;;16.42;4.00;;;;;;;29.14;40.74;94631.44;4979315;28;20488;-65
2022/05/23 10:48:22;;;;;;;9.85;3.90;;;;;;;29.95;39.66;94627.28;4984378;28;20027;-65
2022/05/23 10:51:14;;;;;;;8.80;3.92;;;;;;;30.51;35.01;94615.97;4978838;28;20037;-66
2022/05/23 10:54:04;;;;;;;7.93;3.40;;;;;;;30.81;32.57;94609.25;4985424;28;20159;-66
2022/05/23 10:56:47;;;;;;;11.55;2.80;;;;;;;31.18;30.08;94601.31;4977502;28;20041;-65
2022/05/23 10:59:31;;;;;;;6.75;3.38;;;;;;;31.45;27.78;94588.84;4974680;28;20023;-66
2022/05/23 11:02:05;;;;;;;9.02;3.13;;;;;;;31.22;28.88;94601.50;4983433;28;20029;-65
2022/05/23 11:04:40;;;;;;;9.07;4.07;;;;;;;31.12;34.00;94594.31;4980671;28;20105;-67
2022/05/23 11:07:25;;;;;;;;;;;;;;;30.92;32.28;94603.66;4984972;28;20030;-66
2022/05/23 11:10:19;;;;;;;6.32;3.33;;;;;;;31.08;31.96;94613.16;4982061;28;19918;-66
2022/05/23 11:12:57;;;;;;;5.22;3.22;;;;;;;31.14;31.30;94609.22;4981971;28;20149;-68
2022/05/23 11:15:25;;;;;;;5.10;3.22;;;;;;;31.33;30.06;94616.53;4976431;28;20126;-65
2022/05/23 11:18:14;;;;;;;7.30;3.10;;;;;;;30.82;30.55;94608.16;4982161;28;20121;-67
2022/05/23 11:20:40;;;;;;;9.98;3.22;;;;;;;31.19;31.69;94604.81;4979701;28;20031;-67
2022/05/23 11:23:28;;;;;;;4.72;2.67;;;;;;;30.86;30.96;94594.78;4978625;28;20042;-66
2022/05/23 11:25:59;;;;;;;5.32;3.65;;;;;;;30.63;31.89;94583.75;4986117;28;20042;-67
2022/05/23 11:34:21;;;;;;;9.45;3.83;;;;;;;30.95;32.36;94582.13;4985623;28;20045;-66
2022/05/23 11:37:01;;;;;;;9.52;3.35;;;;;;;31.19;30.47;94572.19;4986197;28;20022;-67
2022/05/23 11:39:49;;;;;;;6.28;3.70;;;;;;;30.34;37.38;94570.34;4985473;28;20027;-67
2022/05/23 11:42:34;;;;;;;7.38;4.22;;;;;;;30.79;37.79;94572.63;4977894;28;20031;-67
2022/05/23 11:47:56;;;;;;;13.52;3.50;;;;;;;31.76;30.32;94573.81;4961522;28;20042;-68
2022/05/23 11:50:29;;;;;;;13.77;3.03;;;;;;;31.92;29.40;94580.56;4981107;28;20115;-68
2022/05/23 11:53:23;;;;;;;6.28;2.80;;;;;;;31.36;31.21;94575.16;4987296;28;20030;-70
2022/05/23 11:55:55;;;;;;;3.10;2.78;;;;;;;31.61;28.69;94586.63;4982939;28;20093;-68
2022/05/23 11:58:39;;;;;;;6.03;2.92;;;;;;;31.66;27.13;94588.44;4982214;28;20027;-69
2022/05/23 12:01:26;;;;;;;5.65;2.70;;;;;;;31.68;27.44;94587.00;4985539;28;20030;-68
2022/05/23 12:03:55;;;;;;;7.40;2.92;;;;;;;32.01;27.92;94588.81;4989693;28;20116;-69
2022/05/23 12:06:23;;;;;;;9.38;3.05;;;;;;;32.10;28.16;94599.78;4983260;28;20026;-68
2022/05/23 12:08:58;;;;;;;3.53;2.60;;;;;;;31.38;27.04;94602.03;4991343;28;20058;-68
2022/05/23 12:11:24;;;;;;;;;;;;;;;30.49;29.51;94588.28;4980071;28;20034;-67
2022/05/23 12:13:51;;;;;;;5.88;2.70;;;;;;;30.32;29.30;94576.09;4982924;28;19918;-68
2022/05/23 12:16:32;;;;;;;8.88;3.58;;;;;;;30.73;33.50;94596.34;4987111;28;20038;-67
2022/05/23 12:19:24;;;;;;;5.85;3.38;;;;;;;29.63;36.58;94609.81;4990362;28;20260;-68
2022/05/23 12:21:50;;;;;;;3.33;3.00;;;;;;;29.07;37.61;94603.06;4984278;28;20033;-67
2022/05/23 12:24:21;;;;;;;5.85;3.17;;;;;;;28.55;37.13;94600.81;4986040;28;20026;-67
2022/05/23 12:26:53;;;;;;;9.00;3.60;;;;;;;28.51;36.25;94611.38;4986856;28;20037;-67
2022/05/23 12:29:32;;;;;;;5.45;3.08;;;;;;;28.29;41.13;94600.97;4988135;28;20394;-67
2022/05/23 12:32:10;;;;;;;6.15;3.47;;;;;;;28.31;42.29;94602.31;4982582;28;20031;-68
2022/05/23 12:34:41;;;;;;;6.38;3.35;;;;;;;28.87;41.03;94604.88;4976162;28;20035;-67